Aviation Digital Data Service (ADDS)

Output produced by METARs form (1727 UTC 03 June 2020)
found at http://www.aviationweather.gov/metar/data/
 
Forecast for: OIKB (BANDAR ABBAS INT, IR)
Text: TAF OIKB 031100Z 0312/0418 20008KT 3000 HZ NSC
Forecast period: 1200 UTC 03 June 2020 to 0400 UTC 04 June 2020
Forecast type: FROM: standard forecast or significant change
Winds: from the SSW (200 degrees) at 9 MPH (8 knots; 4.1 m/s)
Visibility: 1.86 miles (2.99 km)
Ceiling: unknown
Clouds: missing
Weather: HZ  (haze)
Text: TEMPO 0312/0318 22018KT 2000 SA
Forecast period: 1200 to 1800 UTC 03 June 2020
Forecast type: TEMPORARY: The following changes expected for less than half the time period
Winds: from the SW (220 degrees) at 21 MPH (18 knots; 9.3 m/s)
Visibility: 1.24 miles (2.00 km)
Ceiling: unknown
Clouds: missing
Weather: SA  (sand)
Text: TEMPO 0321/0404 1500 BR
Forecast period: 2100 UTC 03 June 2020 to 0400 UTC 04 June 2020
Forecast type: TEMPORARY: The following changes expected for less than half the time period
Visibility: 0.93 miles (1.50 km)
Ceiling: unknown
Clouds: missing
Weather: BR  (mist)
Text: BECMG 0404/0406 5000 HZ
Forecast period: 0400 to 1800 UTC 04 June 2020
Forecast type: BECOMING: Conditions expected to become as follows by 0600 UTC 04 June 2020
Winds: from the SSW (200 degrees) at 9 MPH (8 knots; 4.1 m/s)
Visibility: 3 miles (5 km)
Ceiling: unknown
Clouds: missing
Weather: HZ  (haze)